createdAt,value
2019-05-14T00:02:25.004Z,8.60
2019-05-14T00:04:51.334Z,8.60
2019-05-14T00:07:17.562Z,8.60
2019-05-14T00:09:43.573Z,8.60
2019-05-14T00:12:11.369Z,8.40
2019-05-14T00:14:40.373Z,8.50
2019-05-14T00:17:07.567Z,8.50
2019-05-14T00:19:33.587Z,8.20
2019-05-14T00:22:01.912Z,8.40
2019-05-14T00:24:27.562Z,8.40
2019-05-14T00:26:53.564Z,8.40
2019-05-14T00:29:21.868Z,8.30
2019-05-14T00:31:47.939Z,8.30
2019-05-14T00:34:13.957Z,8.20
2019-05-14T00:36:41.642Z,8.30
2019-05-14T00:39:08.002Z,8.00
2019-05-14T00:41:34.012Z,8.30
2019-05-14T00:44:01.919Z,8.30
2019-05-14T00:46:28.052Z,8.00
2019-05-14T00:48:54.076Z,8.30
2019-05-14T00:51:21.491Z,8.20
2019-05-14T00:53:47.734Z,8.20
2019-05-14T00:56:13.778Z,8.20
2019-05-14T00:58:41.497Z,8.10
2019-05-14T01:01:07.678Z,8.20
2019-05-14T01:03:36.395Z,8.00
2019-05-14T01:06:03.243Z,8.00
2019-05-14T01:08:31.780Z,7.90
2019-05-14T01:10:57.371Z,7.90
2019-05-14T01:13:23.499Z,7.80
2019-05-14T01:15:51.891Z,8.00
2019-05-14T01:18:17.451Z,7.90
2019-05-14T01:20:43.827Z,7.50
2019-05-14T01:23:11.493Z,7.80
2019-05-14T01:25:37.672Z,7.50
2019-05-14T01:28:03.787Z,7.70
2019-05-14T01:30:31.723Z,7.70
2019-05-14T01:32:58.071Z,7.70
2019-05-14T01:35:24.663Z,7.60
2019-05-14T01:37:52.252Z,7.60
2019-05-14T01:40:18.425Z,7.50
2019-05-14T01:42:44.977Z,7.50
2019-05-14T01:45:23.909Z,7.60
2019-05-14T01:47:41.245Z,7.20
2019-05-14T01:50:07.384Z,7.40
2019-05-14T01:52:33.411Z,7.20
2019-05-14T01:55:02.077Z,7.40
2019-05-14T01:57:27.743Z,7.30
2019-05-14T01:59:53.823Z,7.30
2019-05-14T02:02:21.843Z,7.20
2019-05-14T02:04:48.063Z,7.30
2019-05-14T02:07:16.059Z,7.20
2019-05-14T02:09:42.207Z,7.30
2019-05-14T02:12:08.345Z,7.10
2019-05-14T02:14:34.353Z,7.30
2019-05-14T02:17:01.952Z,7.30
2019-05-14T02:19:31.149Z,7.10
2019-05-14T02:21:56.967Z,6.90
2019-05-14T02:24:23.003Z,7.30
2019-05-14T02:26:51.268Z,7.00
2019-05-14T02:29:16.959Z,7.00
2019-05-14T02:31:42.995Z,7.10
2019-05-14T02:34:10.367Z,7.10
2019-05-14T02:36:39.724Z,6.90
2019-05-14T02:39:05.356Z,7.10
2019-05-14T02:41:31.665Z,6.80
2019-05-14T02:43:59.308Z,6.80
2019-05-14T02:46:25.645Z,6.90
2019-05-14T02:48:52.124Z,6.90
2019-05-14T02:51:19.899Z,6.90
2019-05-14T02:53:46.074Z,6.80
2019-05-14T02:56:12.580Z,7.00
2019-05-14T02:58:40.192Z,7.00
2019-05-14T03:01:09.269Z,6.90
2019-05-14T03:03:34.856Z,6.80
2019-05-14T03:06:00.978Z,6.80
2019-05-14T03:08:30.083Z,6.90
2019-05-14T03:10:56.123Z,6.70
2019-05-14T03:13:22.149Z,6.80
2019-05-14T03:15:49.770Z,7.00
2019-05-14T03:18:16.111Z,6.70
2019-05-14T03:20:42.129Z,7.00
2019-05-14T03:23:12.669Z,6.80
2019-05-14T03:25:39.732Z,6.70
2019-05-14T03:28:04.385Z,6.90
2019-05-14T03:30:32.480Z,6.80
2019-05-14T03:33:02.973Z,6.70
2019-05-14T03:35:40.167Z,6.70
2019-05-14T03:37:54.773Z,6.40
2019-05-14T03:40:20.812Z,6.50
2019-05-14T03:42:49.088Z,6.50
2019-05-14T03:45:14.742Z,6.60
2019-05-14T03:47:40.778Z,6.70
2019-05-14T03:50:10.003Z,6.60
2019-05-14T03:52:35.234Z,6.70
2019-05-14T03:55:04.848Z,6.70
2019-05-14T03:57:29.507Z,6.90
2019-05-14T03:59:59.452Z,6.90
2019-05-14T04:02:23.509Z,6.80
2019-05-14T04:04:50.593Z,6.70
2019-05-14T04:07:19.555Z,6.80
2019-05-14T04:09:45.335Z,6.80
2019-05-14T04:12:11.744Z,6.70
2019-05-14T04:14:39.859Z,6.90
2019-05-14T04:17:11.127Z,6.90
2019-05-14T04:19:35.227Z,7.00
2019-05-14T04:22:01.253Z,7.00
2019-05-14T04:24:29.877Z,7.10
2019-05-14T04:27:06.223Z,7.00
2019-05-14T04:29:24.821Z,7.00
2019-05-14T04:31:50.929Z,7.30
2019-05-14T04:34:19.521Z,6.90
2019-05-14T04:36:44.880Z,7.20
2019-05-14T04:39:10.935Z,7.40
2019-05-14T04:41:39.395Z,7.30
2019-05-14T04:44:04.863Z,7.40
2019-05-14T04:46:30.991Z,7.40
2019-05-14T04:48:59.218Z,7.50
2019-05-14T04:51:24.944Z,7.60
2019-05-14T04:53:51.060Z,7.60
2019-05-14T04:56:19.545Z,7.80
2019-05-14T04:58:45.090Z,7.50
2019-05-14T05:01:11.397Z,7.70
2019-05-14T05:03:40.003Z,7.90
2019-05-14T05:06:05.682Z,7.60
2019-05-14T05:08:31.719Z,8.00
2019-05-14T05:11:00.026Z,7.80
2019-05-14T05:13:25.670Z,8.20
2019-05-14T05:15:51.748Z,8.30
2019-05-14T05:18:18.673Z,8.40
2019-05-14T05:20:44.911Z,8.50
2019-05-14T05:23:10.947Z,8.60
2019-05-14T05:25:38.441Z,8.70
2019-05-14T05:28:04.768Z,8.80
2019-05-14T05:30:30.801Z,8.90
2019-05-14T05:32:59.529Z,9.00
2019-05-14T05:35:25.096Z,9.10
2019-05-14T05:37:51.596Z,9.20
2019-05-14T05:40:19.715Z,9.20
2019-05-14T05:42:45.567Z,9.30
2019-05-14T05:45:11.699Z,9.40
2019-05-14T05:47:39.117Z,9.50
2019-05-14T05:50:08.730Z,9.60
2019-05-14T05:52:35.117Z,9.70
2019-05-14T05:55:01.239Z,9.80
2019-05-14T05:57:28.303Z,9.90
2019-05-14T05:59:55.644Z,9.90
2019-05-14T06:02:21.729Z,9.90
2019-05-14T06:04:48.658Z,10.00
2019-05-14T06:07:15.031Z,10.00
2019-05-14T06:09:41.055Z,10.10
2019-05-14T06:12:08.630Z,10.10
2019-05-14T06:14:35.036Z,10.30
2019-05-14T06:17:01.062Z,10.30
2019-05-14T06:19:28.981Z,10.40
2019-05-14T06:21:59.436Z,10.50
2019-05-14T06:24:24.638Z,10.60
2019-05-14T06:26:50.725Z,10.70
2019-05-14T06:29:18.680Z,10.80
2019-05-14T06:31:44.860Z,10.80
2019-05-14T06:34:10.879Z,10.80
2019-05-14T06:36:39.363Z,10.90
2019-05-14T06:39:06.319Z,10.90
2019-05-14T06:41:32.337Z,11.00
2019-05-14T06:43:59.244Z,11.20
2019-05-14T06:46:25.420Z,11.20
2019-05-14T06:48:51.431Z,11.20
2019-05-14T06:51:20.042Z,11.30
2019-05-14T06:53:45.411Z,11.40
2019-05-14T06:56:11.427Z,11.40
2019-05-14T06:58:38.905Z,11.50
2019-05-14T07:01:05.560Z,11.60
2019-05-14T07:03:31.636Z,11.80
2019-05-14T07:05:59.598Z,11.90
2019-05-14T07:08:32.166Z,11.90
2019-05-14T07:10:59.264Z,11.90
2019-05-14T07:13:28.632Z,12.00
2019-05-14T07:15:58.386Z,12.00
2019-05-14T07:18:24.487Z,12.20
2019-05-14T07:20:50.963Z,12.20
2019-05-14T07:23:19.230Z,12.40
2019-05-14T07:25:44.883Z,12.40
2019-05-14T07:28:10.951Z,12.50
2019-05-14T07:30:39.395Z,12.50
2019-05-14T07:33:05.143Z,12.50
2019-05-14T07:35:31.595Z,12.60
2019-05-14T07:37:59.126Z,12.80
2019-05-14T07:40:25.323Z,12.90
2019-05-14T07:42:51.723Z,13.00
2019-05-14T07:45:18.476Z,13.00
2019-05-14T07:47:44.769Z,13.00
2019-05-14T07:50:10.871Z,13.10
2019-05-14T07:52:44.944Z,13.10
2019-05-14T07:55:06.424Z,13.20
2019-05-14T07:57:32.475Z,13.40
2019-05-14T07:59:58.967Z,13.50
2019-05-14T08:02:25.189Z,13.60
2019-05-14T08:04:51.222Z,13.70
2019-05-14T08:07:17.968Z,13.80
2019-05-14T08:09:48.069Z,13.80
2019-05-14T08:12:16.369Z,13.80
2019-05-14T08:14:57.293Z,14.00
2019-05-14T08:17:10.091Z,14.10
2019-05-14T08:19:38.360Z,14.10
2019-05-14T08:22:04.348Z,14.00
2019-05-14T08:24:30.393Z,14.10
2019-05-14T08:26:57.914Z,14.20
2019-05-14T08:29:24.170Z,14.30
2019-05-14T08:31:50.174Z,14.20
2019-05-14T08:34:19.010Z,14.20
2019-05-14T08:36:44.411Z,14.30
2019-05-14T08:39:10.420Z,14.50
2019-05-14T08:41:38.378Z,14.80
2019-05-14T08:44:04.492Z,14.80
2019-05-14T08:46:30.511Z,15.00
2019-05-14T08:48:58.607Z,15.00
2019-05-14T08:51:24.466Z,15.00
2019-05-14T08:53:50.760Z,14.90
2019-05-14T08:56:19.108Z,15.00
2019-05-14T08:58:44.838Z,15.20
2019-05-14T09:01:10.852Z,15.20
2019-05-14T09:03:39.304Z,15.20
2019-05-14T09:06:04.895Z,15.30
2019-05-14T09:08:30.908Z,15.40
2019-05-14T09:10:59.023Z,15.50
2019-05-14T09:13:25.491Z,15.30
2019-05-14T09:15:51.502Z,15.20
2019-05-14T09:18:18.475Z,15.30
2019-05-14T09:20:44.687Z,15.50
2019-05-14T09:23:10.699Z,15.70
2019-05-14T09:25:45.384Z,15.80
2019-05-14T09:28:04.972Z,15.70
2019-05-14T09:30:30.983Z,16.10
2019-05-14T09:32:59.175Z,16.50
2019-05-14T09:35:24.921Z,17.00
2019-05-14T09:37:51.456Z,17.30
2019-05-14T09:40:19.812Z,17.50
2019-05-14T09:42:45.788Z,17.40
2019-05-14T09:45:11.838Z,17.40
2019-05-14T09:47:38.744Z,17.40
2019-05-14T09:50:16.466Z,16.90
2019-05-14T09:52:33.647Z,16.30
2019-05-14T09:54:59.673Z,15.90
2019-05-14T09:57:28.034Z,15.50
2019-05-14T09:59:53.599Z,15.30
2019-05-14T10:02:19.637Z,15.40
2019-05-14T10:04:48.728Z,15.30
2019-05-14T10:07:15.670Z,15.40
2019-05-14T10:09:41.847Z,15.60
2019-05-14T10:12:09.150Z,15.70
2019-05-14T10:14:35.238Z,16.00
2019-05-14T10:17:02.297Z,16.20
2019-05-14T10:19:29.698Z,16.50
2019-05-14T10:21:55.923Z,16.90
2019-05-14T10:24:22.215Z,17.30
2019-05-14T10:26:48.949Z,17.80
2019-05-14T10:29:15.377Z,18.30
2019-05-14T10:31:41.487Z,18.60
2019-05-14T10:34:08.388Z,18.50
2019-05-14T10:36:34.651Z,18.50
2019-05-14T10:39:01.908Z,18.30
2019-05-14T10:41:29.147Z,17.90
2019-05-14T10:43:58.586Z,17.60
2019-05-14T10:46:24.623Z,17.50
2019-05-14T10:48:50.645Z,17.40
2019-05-14T10:51:18.094Z,17.70
2019-05-14T10:53:44.413Z,17.80
2019-05-14T10:56:10.424Z,18.30
2019-05-14T10:58:36.435Z,18.70
2019-05-14T11:01:02.808Z,18.80
2019-05-14T11:03:30.220Z,18.60
2019-05-14T11:05:58.612Z,18.20
2019-05-14T11:08:24.493Z,18.40
2019-05-14T11:10:50.522Z,19.00
2019-05-14T11:13:18.830Z,18.70
2019-05-14T11:15:44.803Z,18.40
2019-05-14T11:18:12.181Z,18.80
2019-05-14T11:20:42.035Z,23.20
2019-05-14T11:23:08.789Z,27.10
2019-05-14T11:25:34.132Z,29.50
2019-05-14T11:28:00.143Z,30.20
2019-05-14T11:30:28.599Z,29.00
2019-05-14T11:32:54.391Z,29.30
2019-05-14T11:35:20.406Z,30.50
2019-05-14T11:37:48.051Z,30.00
2019-05-14T11:40:14.635Z,29.20
2019-05-14T11:42:40.944Z,29.30
2019-05-14T11:45:08.923Z,30.30
2019-05-14T11:47:35.188Z,31.90
2019-05-14T11:50:01.315Z,32.50
2019-05-14T11:52:28.693Z,32.90
2019-05-14T11:54:55.067Z,33.30
2019-05-14T11:57:21.176Z,33.80
2019-05-14T11:59:47.207Z,35.70
2019-05-14T12:02:18.631Z,37.90
2019-05-14T12:04:44.053Z,39.50
2019-05-14T12:07:10.085Z,38.90
2019-05-14T12:09:36.096Z,35.10
2019-05-14T12:12:02.162Z,32.50
2019-05-14T12:14:30.884Z,33.90
2019-05-14T12:16:59.725Z,36.20
2019-05-14T12:19:24.865Z,38.30
2019-05-14T12:22:05.867Z,39.10
2019-05-14T12:24:18.947Z,40.80
2019-05-14T12:26:44.979Z,42.20
2019-05-14T12:29:11.129Z,42.00
2019-05-14T12:31:38.615Z,40.00
2019-05-14T12:34:04.902Z,37.10
2019-05-14T12:36:30.947Z,35.50
2019-05-14T12:38:59.172Z,36.90
2019-05-14T12:41:24.942Z,38.30
2019-05-14T12:43:51.074Z,39.30
2019-05-14T12:46:19.833Z,39.80
2019-05-14T12:48:45.023Z,40.40
2019-05-14T12:51:11.145Z,38.10
2019-05-14T12:53:39.355Z,35.80
2019-05-14T12:56:05.091Z,37.50
2019-05-14T12:58:32.073Z,39.60
2019-05-14T13:00:59.469Z,40.50
2019-05-14T13:03:28.356Z,41.20
2019-05-14T13:05:53.711Z,41.10
2019-05-14T13:08:19.761Z,38.80
2019-05-14T13:10:45.793Z,37.90
2019-05-14T13:13:11.816Z,38.70
2019-05-14T13:15:39.361Z,38.20
2019-05-14T13:18:05.587Z,38.60
2019-05-14T13:20:31.668Z,37.70
2019-05-14T13:22:57.700Z,38.20
2019-05-14T13:25:23.731Z,38.60
2019-05-14T13:27:49.887Z,39.50
2019-05-14T13:30:18.344Z,40.20
2019-05-14T13:32:43.820Z,40.10
2019-05-14T13:35:13.518Z,37.10
2019-05-14T13:37:39.854Z,34.50
2019-05-14T13:40:08.981Z,34.00
2019-05-14T13:42:34.144Z,35.30
2019-05-14T13:45:00.198Z,36.60
2019-05-14T13:47:28.631Z,37.80
2019-05-14T13:49:54.631Z,38.90
2019-05-14T13:52:20.649Z,39.80
2019-05-14T13:54:46.695Z,40.20
2019-05-14T13:57:12.824Z,40.10
2019-05-14T13:59:43.873Z,41.20
2019-05-14T14:02:09.833Z,42.00
2019-05-14T14:04:34.923Z,42.20
2019-05-14T14:07:01.048Z,42.00
2019-05-14T14:09:28.433Z,41.60
2019-05-14T14:11:55.469Z,39.70
2019-05-14T14:14:21.823Z,39.00
2019-05-14T14:16:50.347Z,38.80
2019-05-14T14:19:18.746Z,38.90
2019-05-14T14:21:44.771Z,38.60
2019-05-14T14:24:10.787Z,38.40
2019-05-14T14:26:39.398Z,38.50
2019-05-14T14:29:04.820Z,37.20
2019-05-14T14:31:30.831Z,34.50
2019-05-14T14:33:56.873Z,33.50
2019-05-14T14:36:22.876Z,33.00
2019-05-14T14:38:49.716Z,33.00
2019-05-14T14:41:19.424Z,33.10
2019-05-14T14:43:51.931Z,32.30
2019-05-14T14:46:19.956Z,31.10
2019-05-14T14:48:49.006Z,30.00
2019-05-14T14:51:14.110Z,29.60
2019-05-14T14:53:52.406Z,29.30
2019-05-14T14:56:09.502Z,28.90
2019-05-14T14:58:35.987Z,29.30
2019-05-14T15:01:02.076Z,30.30
2019-05-14T15:03:29.544Z,31.00
2019-05-14T15:05:58.717Z,31.80
2019-05-14T15:08:23.792Z,33.20
2019-05-14T15:10:49.827Z,33.20
2019-05-14T15:13:15.847Z,32.50
2019-05-14T15:15:41.863Z,31.60
2019-05-14T15:18:10.066Z,30.60
2019-05-14T15:20:36.314Z,29.30
2019-05-14T15:23:02.347Z,28.10
2019-05-14T15:25:30.675Z,26.70
2019-05-14T15:27:58.414Z,25.80
2019-05-14T15:30:28.766Z,24.80
2019-05-14T15:32:59.728Z,24.30
2019-05-14T15:35:25.627Z,23.70
2019-05-14T15:37:51.648Z,23.30
2019-05-14T15:40:22.053Z,23.30
2019-05-14T15:42:46.155Z,23.10
2019-05-14T15:45:12.197Z,22.90
2019-05-14T15:47:38.942Z,22.80
2019-05-14T15:50:08.927Z,22.50
2019-05-14T15:52:34.175Z,22.10
2019-05-14T15:55:00.573Z,21.80
2019-05-14T15:57:28.877Z,21.50
2019-05-14T15:59:54.531Z,21.30
2019-05-14T16:02:20.728Z,21.00
2019-05-14T16:04:47.253Z,20.80
2019-05-14T16:07:15.186Z,20.90
2019-05-14T16:09:41.237Z,21.00
2019-05-14T16:12:09.453Z,20.80
2019-05-14T16:14:35.496Z,21.00
2019-05-14T16:17:01.514Z,21.30
2019-05-14T16:19:28.522Z,21.70
2019-05-14T16:21:54.832Z,21.90
2019-05-14T16:24:22.598Z,22.10
2019-05-14T16:26:48.836Z,22.10
2019-05-14T16:29:14.877Z,22.10
2019-05-14T16:31:43.663Z,22.00
2019-05-14T16:34:10.271Z,22.00
2019-05-14T16:36:40.948Z,21.90
2019-05-14T16:39:05.706Z,21.60
2019-05-14T16:41:31.847Z,21.20
2019-05-14T16:43:58.714Z,20.90
2019-05-14T16:46:46.899Z,20.50
2019-05-14T16:49:12.931Z,20.20
2019-05-14T16:51:38.947Z,19.70
2019-05-14T16:54:11.578Z,19.30
2019-05-14T16:56:41.041Z,19.00
2019-05-14T16:59:05.964Z,18.80
2019-05-14T17:01:33.692Z,18.90
2019-05-14T17:03:59.930Z,19.00
2019-05-14T17:06:25.999Z,18.80
2019-05-14T17:08:52.178Z,18.60
2019-05-14T17:11:18.430Z,18.60
2019-05-14T17:13:44.581Z,18.40
2019-05-14T17:16:10.629Z,18.30
2019-05-14T17:18:36.638Z,18.30
2019-05-14T17:21:03.187Z,18.50
2019-05-14T17:23:29.555Z,18.40
2019-05-14T17:25:57.829Z,18.40
2019-05-14T17:28:23.533Z,18.30
2019-05-14T17:30:49.576Z,18.10
2019-05-14T17:33:15.600Z,17.90
2019-05-14T17:35:41.615Z,17.90
2019-05-14T17:38:09.254Z,17.80
2019-05-14T17:40:35.404Z,17.50
2019-05-14T17:43:01.409Z,17.20
2019-05-14T17:45:28.403Z,17.10
2019-05-14T17:47:54.671Z,17.10
2019-05-14T17:50:20.710Z,17.00
2019-05-14T17:52:55.432Z,16.80
2019-05-14T17:55:14.670Z,16.70
2019-05-14T17:57:45.743Z,16.60
2019-05-14T18:00:09.487Z,16.60
2019-05-14T18:02:35.810Z,16.50
2019-05-14T18:05:02.334Z,16.40
2019-05-14T18:07:28.668Z,16.40
2019-05-14T18:09:54.812Z,16.30
2019-05-14T18:12:20.883Z,16.30
2019-05-14T18:14:48.896Z,16.10
2019-05-14T18:17:18.660Z,15.80
2019-05-14T18:19:42.863Z,15.60
2019-05-14T18:22:09.391Z,15.30
2019-05-14T18:24:35.421Z,15.10
2019-05-14T18:27:01.446Z,14.90
2019-05-14T18:29:29.536Z,14.70
2019-05-14T18:31:55.595Z,14.60
2019-05-14T18:34:21.631Z,14.40
2019-05-14T18:36:48.907Z,14.30
2019-05-14T18:39:18.331Z,14.20
2019-05-14T18:41:43.163Z,14.10
2019-05-14T18:44:09.809Z,14.00
2019-05-14T18:46:35.909Z,13.90
2019-05-14T18:49:01.962Z,13.80
2019-05-14T18:51:34.148Z,13.70
2019-05-14T18:54:00.188Z,13.50
2019-05-14T18:56:30.901Z,13.50
2019-05-14T18:58:57.165Z,13.40
2019-05-14T19:01:23.259Z,13.30
2019-05-14T19:03:49.596Z,13.20
2019-05-14T19:06:15.883Z,13.10
2019-05-14T19:08:41.972Z,13.00
2019-05-14T19:11:08.303Z,12.90
2019-05-14T19:13:34.495Z,12.90
2019-05-14T19:16:00.520Z,12.80
2019-05-14T19:18:28.623Z,12.80
2019-05-14T19:20:54.608Z,12.70
2019-05-14T19:23:21.559Z,12.60
2019-05-14T19:25:48.389Z,12.50
2019-05-14T19:28:14.687Z,12.40
2019-05-14T19:30:40.732Z,12.40
2019-05-14T19:33:08.558Z,12.30
2019-05-14T19:35:34.959Z,12.30
2019-05-14T19:38:00.991Z,12.20
2019-05-14T19:40:28.215Z,12.20
2019-05-14T19:42:54.880Z,12.10
2019-05-14T19:45:20.899Z,12.00
2019-05-14T19:47:49.120Z,12.00
2019-05-14T19:50:14.835Z,12.00
2019-05-14T19:52:40.848Z,11.90
2019-05-14T19:55:06.879Z,11.90
2019-05-14T19:57:32.912Z,11.80
2019-05-14T19:59:58.927Z,11.80
2019-05-14T20:02:25.117Z,11.70
2019-05-14T20:04:51.236Z,11.60
2019-05-14T20:07:18.116Z,11.50
2019-05-14T20:09:44.364Z,11.50
2019-05-14T20:12:10.412Z,11.50
2019-05-14T20:14:38.295Z,11.50
2019-05-14T20:17:04.469Z,11.40
2019-05-14T20:19:30.491Z,11.40
2019-05-14T20:21:58.657Z,11.30
2019-05-14T20:24:25.049Z,11.20
2019-05-14T20:27:04.938Z,11.10
2019-05-14T20:29:19.632Z,11.00
2019-05-14T20:31:48.185Z,11.00
2019-05-14T20:34:13.834Z,10.90
2019-05-14T20:36:39.843Z,10.90
2019-05-14T20:39:08.481Z,10.80
2019-05-14T20:41:35.536Z,10.80
2019-05-14T20:44:01.578Z,10.80
2019-05-14T20:46:32.792Z,10.70
2019-05-14T20:48:59.271Z,10.70
2019-05-14T20:51:27.649Z,10.60
2019-05-14T20:53:53.371Z,10.60
2019-05-14T20:56:24.638Z,10.60
2019-05-14T20:58:50.652Z,10.50
2019-05-14T21:01:18.413Z,10.50
2019-05-14T21:03:45.408Z,10.50
2019-05-14T21:06:13.720Z,10.40
2019-05-14T21:08:39.725Z,10.40
2019-05-14T21:11:08.251Z,10.30
2019-05-14T21:13:34.261Z,10.30
2019-05-14T21:16:00.276Z,10.20
2019-05-14T21:18:34.843Z,10.20
2019-05-14T21:20:54.199Z,10.20
2019-05-14T21:23:20.229Z,10.10
2019-05-14T21:25:48.340Z,10.10
2019-05-14T21:28:14.543Z,10.00
2019-05-14T21:30:41.252Z,9.90
2019-05-14T21:33:08.429Z,9.90
2019-05-14T21:35:34.688Z,9.80
2019-05-14T21:38:01.087Z,9.80
2019-05-14T21:40:29.138Z,9.70
2019-05-14T21:42:55.449Z,9.70
2019-05-14T21:45:21.455Z,9.70
2019-05-14T21:47:48.229Z,9.70
2019-05-14T21:50:14.449Z,9.60
2019-05-14T21:52:42.389Z,9.50
2019-05-14T21:55:08.379Z,9.50
2019-05-14T21:57:34.419Z,9.50
2019-05-14T22:00:00.429Z,9.40
2019-05-14T22:02:30.333Z,9.40
2019-05-14T22:04:55.391Z,9.40
2019-05-14T22:07:21.758Z,9.40
2019-05-14T22:09:48.798Z,9.40
2019-05-14T22:12:14.996Z,9.30
2019-05-14T22:14:41.082Z,9.30
2019-05-14T22:17:08.010Z,9.20
2019-05-14T22:19:34.224Z,9.20
2019-05-14T22:22:00.215Z,9.20
2019-05-14T22:24:28.532Z,9.20
2019-05-14T22:26:54.801Z,9.10
2019-05-14T22:29:20.821Z,9.10
2019-05-14T22:31:46.901Z,9.10
2019-05-14T22:34:12.923Z,9.00
2019-05-14T22:36:38.983Z,9.00
2019-05-14T22:39:05.180Z,8.90
2019-05-14T22:41:31.511Z,8.90
2019-05-14T22:43:59.853Z,8.90
2019-05-14T22:46:25.490Z,8.90
2019-05-14T22:48:51.643Z,8.80
2019-05-14T22:51:18.375Z,8.80
2019-05-14T22:53:45.395Z,8.80
2019-05-14T22:56:11.419Z,8.80
2019-05-14T22:58:38.318Z,8.70
2019-05-14T23:01:14.340Z,8.70
2019-05-14T23:03:32.801Z,8.70
2019-05-14T23:05:58.811Z,8.60
2019-05-14T23:08:24.872Z,8.60
2019-05-14T23:10:51.289Z,8.60
2019-05-14T23:13:18.603Z,8.50
2019-05-14T23:15:44.863Z,8.50
2019-05-14T23:18:10.883Z,8.60
2019-05-14T23:20:39.091Z,8.30
2019-05-14T23:23:06.220Z,8.60
2019-05-14T23:25:32.233Z,8.50
2019-05-14T23:27:59.025Z,8.50
2019-05-14T23:30:30.231Z,8.50
2019-05-14T23:32:56.267Z,8.50
2019-05-14T23:35:22.573Z,8.40
2019-05-14T23:37:49.177Z,8.40
2019-05-14T23:40:15.416Z,8.40
2019-05-14T23:42:41.423Z,8.40
2019-05-14T23:45:08.388Z,8.40
2019-05-14T23:47:34.452Z,8.00
2019-05-14T23:50:00.467Z,8.30
2019-05-14T23:52:29.256Z,8.30
2019-05-14T23:54:55.193Z,8.20
2019-05-14T23:57:21.198Z,7.80
2019-05-14T23:59:48.314Z,8.20
